Sierra Vista, AZ (85636)

1:17 PM MST on August 23, 2014 (GMT -0700)
S. Pickett Pl. | Change Station
CLOSE
Current Station
Personal Weather Station
Location: Sierra Vista, AZ
Elevation: 4260 ft
Nearby Weather Stations

Elev 4260 ft 31.47 °N, 110.14 °W | Updated 2 seconds ago

Mostly Cloudy
Mostly Cloudy
83.8 °F
Feels Like 84 °F
N
0.0
Wind Variable Wind from East
Gusts 1.0 mph

Today
High -- | Low -- °F
--% Chance of Precip.
Yesterday
High -- | Low -- °F
Precip. -- in
5:51 AM 6:55 PM
Waning Crescent, 3% visible
Pressure 29.95 in
Visibility 10.0 miles
Clouds Mostly Cloudy 7500 ft
Heat Index 84 °F
Dew Point 60 °F
Humidity 44%
Rainfall 0.00 in
Snow Depth Not available.
UV 14.3 out of 12
Pollen 5.30 out of 12
Air Quality Not available.
Flu Activity Not available.
METAR KFHU 231956Z AUTO 00000KT 10SM BKN075 27/14 A3012 RMK AO2 SLP141 T02670139 $

More Conditions Fewer Conditions

Pressure 29.95 in
Visibility 10.0 miles
Clouds Mostly Cloudy 7500 ft
Heat Index 84 °F
Dew Point 60 °F
Humidity 44%
Rainfall 0.00 in
Snow Depth Not available.
UV 14.3 out of 12
Pollen 5.30 out of 12
Air Quality Not available.
Flu Activity Not available.
METAR KFHU 231956Z AUTO 00000KT 10SM BKN075 27/14 A3012 RMK AO2 SLP141 T02670139 $

More Conditions Fewer Conditions

10-Day Weather Forecast

Almanac

Astronomy

Aug. 23, 2014 Rise Set
Actual Time 5:51 AM MST 6:55 PM MST
Civil Twilight 5:25 AM MST 7:20 PM MST
Nautical Twilight 4:56 AM MST 7:49 PM MST
Astronomical Twilight 4:25 AM MST 8:20 PM MST
Moon 4:12 AM MST 5:40 PM MST
Length of Visible Light 13h 54m
Length of Day
13h 03m
Tomorrow will be 1m 46s shorter.
Waning Crescent, 3% of the Moon is Illuminated
Today
Waning Crescent
Aug 25
New
Sep 2
First Quarter
Sep 8
Full
Sep 15
Last Quarter

Today's Extremes

State Highs State Lows

Community

WunderPhotos

Upload Photos

1,746,597 photos uploaded!

WunderBlogs® & News

Nearby

Snow Depth

Station Depth Elevation
Beaver Head 6 in 7990 ft
Workman Creek 0 in 6900 ft
Heber 0 in 7640 ft
Snowslide Canyon 0 in 9730 ft

Earthquake Activity

City Distance Mag. Time & Date
No recent earthquake activity has been reported nearby.
Minimum magnitude displayed is 2.5.

Coastal Water Temperatures

Place Temperature
No Stations Reporting

Nearby Weather Stations